BIENTÔT MET'MAP
version 2.0 !

Prévue avant fin octobre,
la nouvelle version sera
plus belle, plus complète
et hébergée sur un serveur
3 fois plus puissant...
et toujours gratuite !


Pas compatible ?
Essayez la version Mobile !

SE CONNECTER : | S'inscrire | Disclaimer | Découvrir Orbifly |
Code OACI :

TAF - EBDT Schaffen Airport - 25 Feb 2020 17:01 UTC
Data Sources :     NOAA   


- Altitude de l'aérodrome : 100 ft
- Pas de NOTAMs connus.


EBDT - Schaffen Airport

Dernier METAR connu : 2015/08/11 07:55 EBDT 110755Z 28004KT 6000 FEW016 BKN230 20/17 Q1019 WHT WHT BECMG BLU
TAF TAF EBDT
Valide du 25 à 13h jusqu'au 25 à 22h UTC


251141Z 2513/2522 25012G23KT 9999 FEW035 SCT040
TEMPO 2513/2522 26013G28KT 5000 -SHRA FEW016 SCT020 BKN035
PROB40
TEMPO 2514/2522 24015G33KT 2800 SHRAGS TSRAGS SCT010 SCT016CB BKN024

Source NOAA


MET'MAP, la Météo Aéronautique d'un coup d'oeil ! - Copyright ORBIFLY Décembre 2007

Développement & Programmation : Alexandra Zaïnal
Co-Développement : Marc-Olivier Méhu
Soutien technique & logistique : Manuel Goepfert
Conception & Financement : Baudouin d'Aumeries